Time;durP1;ratioP1;P1;durP2;ratioP2;P2;SDS_P1;SDS_P2;PMS_P1;PMS_P2;Temp;Humidity;BMP_temperature;BMP_pressure;BME280_temperature;BME280_humidity;BME280_pressure;Samples;Min_cycle;Max_cycle;Signal;HPM_P1;HPM_P2
2022/03/15 00:00:04;;;;;;;72.60;48.80;;;;;;;3.74;42.82;101805.17;110433;1256;23068;-79
2022/03/15 00:03:03;;;;;;;77.30;51.50;;;;;;;3.83;43.11;101806.05;110301;1256;21958;-79
2022/03/15 00:05:52;;;;;;;59.00;41.30;;;;;;;3.93;43.16;101802.17;110332;1256;23328;-79
2022/03/15 00:08:29;;;;;;;58.40;39.00;;;;;;;4.04;43.20;101802.35;109916;1259;21973;-79
2022/03/15 00:11:07;;;;;;;51.40;37.10;;;;;;;4.19;43.42;101807.09;110235;1253;21981;-78
2022/03/15 00:13:47;;;;;;;49.50;36.00;;;;;;;4.34;43.41;101801.67;109766;1259;23575;-78
2022/03/15 00:16:28;;;;;;;;;;;;;;;4.49;43.57;101805.63;109756;1261;23580;-79
2022/03/15 00:19:13;;;;;;;49.10;36.00;;;;;;;4.59;43.78;101798.06;109964;1259;23068;-78
2022/03/15 00:21:53;;;;;;;55.10;38.50;;;;;;;4.70;43.64;101792.63;109489;1259;22077;-78
2022/03/15 00:24:33;;;;;;;59.20;40.60;;;;;;;4.84;43.47;101791.97;109062;1267;21985;-79
2022/03/15 00:27:13;;;;;;;78.80;52.10;;;;;;;4.95;43.40;101789.20;109109;1265;21968;-79
2022/03/15 00:29:51;;;;;;;;;;;;;;;5.05;43.22;101784.34;108939;1267;21972;-77
2022/03/15 00:32:33;;;;;;;81.10;52.30;;;;;;;5.06;43.38;101777.50;109806;1254;21985;-80
2022/03/15 00:35:18;;;;;;;92.50;61.40;;;;;;;5.10;43.30;101773.19;110295;1256;21995;-77
2022/03/15 00:38:07;;;;;;;79.40;54.80;;;;;;;5.13;43.08;101774.77;110083;1256;22046;-78
2022/03/15 00:40:45;;;;;;;82.90;57.80;;;;;;;5.06;42.67;101765.77;109710;1260;21966;-79
2022/03/15 00:43:31;;;;;;;77.40;54.10;;;;;;;4.90;42.36;101762.08;109629;1259;21985;-78
2022/03/15 00:46:10;;;;;;;85.70;58.30;;;;;;;4.77;42.40;101763.09;109687;1259;22137;-77
2022/03/15 00:49:00;;;;;;;87.20;59.40;;;;;;;4.65;42.46;101764.70;109607;1256;24274;-80
2022/03/15 00:51:51;;;;;;;86.50;59.40;;;;;;;4.50;42.60;101766.66;110385;1256;22109;-79
2022/03/15 00:54:35;;;;;;;86.40;57.60;;;;;;;4.41;42.76;101769.67;110497;1253;23561;-79
2022/03/15 00:57:13;;;;;;;92.10;59.40;;;;;;;4.36;42.99;101775.90;110647;1253;21964;-79
2022/03/15 00:59:58;;;;;;;86.70;59.60;;;;;;;4.36;43.14;101779.41;110718;1250;21976;-79
2022/03/15 01:02:35;;;;;;;87.50;61.20;;;;;;;4.35;43.20;101777.68;110570;1250;24258;-78
2022/03/15 01:05:24;;;;;;;86.30;60.40;;;;;;;4.35;43.42;101775.98;110722;1250;21970;-79
2022/03/15 01:08:04;;;;;;;77.60;57.60;;;;;;;4.37;43.50;101774.09;110812;1250;21984;-79
2022/03/15 01:10:41;;;;;;;74.40;56.20;;;;;;;4.36;43.51;101772.75;109975;1254;23749;-79
2022/03/15 01:13:19;;;;;;;76.90;57.10;;;;;;;4.37;43.64;101771.48;110319;1256;22204;-79
2022/03/15 01:15:59;;;;;;;83.10;57.20;;;;;;;4.40;43.78;101773.22;109417;1263;23212;-79
2022/03/15 01:18:36;;;;;;;88.50;63.40;;;;;;;4.39;43.67;101773.94;109755;1261;22104;-78
2022/03/15 01:21:08;;;;;;;87.20;61.10;;;;;;;4.35;43.71;101771.21;109400;1262;23065;-78
2022/03/15 01:23:49;;;;;;;84.90;60.20;;;;;;;4.32;43.84;101767.06;108819;1267;23697;-78
2022/03/15 01:26:23;;;;;;;88.30;63.30;;;;;;;4.31;43.97;101769.54;108807;1268;21973;-78
2022/03/15 01:29:14;;;;;;;109.70;68.50;;;;;;;4.27;43.89;101775.05;108702;1268;22482;-79
2022/03/15 01:31:50;;;;;;;100.70;70.90;;;;;;;4.18;44.01;101781.84;108761;1270;22434;-79
2022/03/15 01:34:32;;;;;;;98.60;67.50;;;;;;;4.09;44.05;101779.06;109020;1261;21976;-77
2022/03/15 01:37:06;;;;;;;97.50;67.50;;;;;;;4.04;44.34;101780.27;109561;1258;22062;-79
2022/03/15 01:39:54;;;;;;;92.40;65.80;;;;;;;4.02;44.67;101783.14;109708;1258;22440;-79
2022/03/15 01:42:26;;;;;;;99.50;67.00;;;;;;;4.02;44.98;101788.17;109848;1256;22032;-80
2022/03/15 01:45:08;;;;;;;102.00;68.20;;;;;;;4.04;45.10;101782.17;109996;1257;21972;-80
2022/03/15 01:47:53;;;;;;;95.10;66.40;;;;;;;4.02;45.39;101779.27;110160;1258;22771;-78
2022/03/15 01:50:31;;;;;;;90.90;62.40;;;;;;;4.01;45.63;101778.70;109878;1256;21965;-78
2022/03/15 01:53:08;;;;;;;88.70;61.50;;;;;;;4.01;45.88;101775.89;110021;1256;22064;-79
2022/03/15 01:56:02;;;;;;;89.80;63.10;;;;;;;4.03;46.25;101777.16;110239;1253;21963;-79
2022/03/15 01:58:47;;;;;;;94.40;65.30;;;;;;;4.05;46.27;101776.70;110428;1254;23657;-79
2022/03/15 02:01:41;;;;;;;80.60;57.80;;;;;;;4.04;46.31;101777.10;110471;1253;21971;-79
2022/03/15 02:04:22;;;;;;;106.40;62.10;;;;;;;4.03;46.45;101775.26;110832;1250;22003;-78
2022/03/15 02:07:13;;;;;;;86.40;58.70;;;;;;;4.01;46.61;101772.40;110599;1250;21995;-78
2022/03/15 02:09:57;;;;;;;77.40;56.80;;;;;;;3.99;46.83;101778.46;110713;1250;21962;-78
2022/03/15 02:12:44;;;;;;;79.80;55.90;;;;;;;3.95;47.11;101782.68;110630;1250;22153;-78
2022/03/15 02:15:24;;;;;;;76.80;57.00;;;;;;;3.93;47.62;101785.42;110634;1249;21965;-77
2022/03/15 02:18:04;;;;;;;72.60;53.20;;;;;;;3.93;48.08;101784.35;110490;1252;21957;-78
2022/03/15 02:20:48;;;;;;;78.20;56.40;;;;;;;3.97;48.53;101786.39;110157;1256;22197;-78
2022/03/15 02:23:23;;;;;;;71.90;56.40;;;;;;;4.02;48.71;101787.52;109969;1258;24200;-78
2022/03/15 02:26:06;;;;;;;79.60;57.60;;;;;;;4.05;48.70;101789.23;110027;1255;22737;-79
2022/03/15 02:28:40;;;;;;;69.00;52.20;;;;;;;4.08;48.69;101793.24;109882;1256;21980;-77
2022/03/15 02:31:25;;;;;;;69.90;50.90;;;;;;;4.11;48.74;101794.14;110281;1255;21970;-78
2022/03/15 02:34:05;;;;;;;64.40;49.60;;;;;;;4.11;48.78;101795.86;110166;1255;22048;-78
2022/03/15 02:36:45;;;;;;;64.40;50.60;;;;;;;4.11;49.10;101794.80;109978;1256;22374;-78
2022/03/15 02:39:22;;;;;;;66.10;49.80;;;;;;;4.14;49.31;101793.44;110183;1251;21969;-78
2022/03/15 02:42:01;;;;;;;60.00;47.90;;;;;;;4.19;49.57;101798.17;110573;1249;23592;-78
2022/03/15 02:44:44;;;;;;;54.30;39.60;;;;;;;4.25;49.76;101797.48;110651;1250;22735;-78
2022/03/15 02:47:30;;;;;;;43.10;32.70;;;;;;;4.32;50.07;101797.25;110806;1250;21956;-80
2022/03/15 02:50:10;;;;;;;41.90;30.90;;;;;;;4.40;50.35;101797.64;110807;1249;22029;-80
2022/03/15 02:52:52;;;;;;;37.40;30.40;;;;;;;4.49;50.58;101793.63;110751;1249;23695;-79
2022/03/15 02:55:35;;;;;;;41.30;32.30;;;;;;;4.57;50.79;101796.41;109904;1257;22821;-79
2022/03/15 02:58:18;;;;;;;36.90;29.60;;;;;;;4.66;50.89;101794.61;110214;1258;22029;-80
2022/03/15 03:01:13;;;;;;;37.30;30.30;;;;;;;4.73;51.07;101791.47;109822;1257;23783;-79
2022/03/15 03:04:03;;;;;;;42.30;31.60;;;;;;;4.81;51.21;101793.21;109751;1261;24367;-78
2022/03/15 03:06:35;;;;;;;34.70;29.80;;;;;;;4.88;51.42;101786.11;109322;1261;22198;-78
2022/03/15 03:09:18;;;;;;;36.90;29.40;;;;;;;4.94;51.60;101785.42;109360;1262;22352;-80
2022/03/15 03:12:01;;;;;;;38.00;30.20;;;;;;;4.98;51.61;101785.87;109600;1261;21985;-77
2022/03/15 03:14:45;;;;;;;35.00;29.80;;;;;;;5.01;51.83;101782.89;109934;1256;23061;-78
2022/03/15 03:17:28;;;;;;;37.00;27.80;;;;;;;5.05;52.06;101784.54;110066;1256;23068;-78
2022/03/15 03:20:21;;;;;;;29.70;24.50;;;;;;;5.08;52.14;101787.00;110245;1253;21961;-77
2022/03/15 03:22:58;;;;;;;27.50;23.50;;;;;;;5.11;52.50;101784.99;110428;1250;22181;-77
2022/03/15 03:25:36;;;;;;;26.80;22.90;;;;;;;5.17;52.82;101789.01;110174;1256;22433;-79
2022/03/15 03:28:13;;;;;;;26.60;23.60;;;;;;;5.23;53.06;101795.48;110167;1256;21966;-79
2022/03/15 03:30:58;;;;;;;28.50;23.90;;;;;;;5.28;53.27;101793.73;109890;1261;22465;-78
2022/03/15 03:33:39;;;;;;;;;;;;;;;5.35;53.56;101794.86;109211;1262;21951;-78
2022/03/15 03:36:20;;;;;;;26.60;23.60;;;;;;;5.32;53.74;101796.77;109256;1263;21966;-78
2022/03/15 03:38:55;;;;;;;27.50;22.40;;;;;;;5.34;53.93;101792.13;108902;1267;23625;-78
2022/03/15 03:41:39;;;;;;;26.70;21.30;;;;;;;5.38;54.06;101791.34;108801;1268;23678;-77
2022/03/15 03:44:25;;;;;;;25.00;22.10;;;;;;;5.42;54.27;101797.36;109167;1263;22017;-78
2022/03/15 03:47:14;;;;;;;26.50;23.20;;;;;;;5.48;54.50;101801.73;109245;1262;23070;-78
2022/03/15 03:49:55;;;;;;;26.30;22.10;;;;;;;5.49;54.64;101800.77;109641;1258;22022;-79
2022/03/15 03:52:38;;;;;;;26.70;21.90;;;;;;;5.53;54.93;101802.42;110060;1259;21969;-79
2022/03/15 03:55:13;;;;;;;24.20;20.20;;;;;;;5.55;55.10;101805.98;109215;1262;23044;-79
2022/03/15 03:57:52;;;;;;;23.70;21.10;;;;;;;5.58;55.33;101803.83;109429;1262;23616;-79
2022/03/15 04:00:31;;;;;;;23.80;19.70;;;;;;;5.60;55.51;101802.45;109383;1259;21999;-79
2022/03/15 04:03:24;;;;;;;26.10;20.40;;;;;;;5.64;55.73;101799.40;109696;1259;23561;-79
2022/03/15 04:06:12;;;;;;;23.60;19.30;;;;;;;5.70;55.94;101792.39;109866;1259;21961;-79
2022/03/15 04:09:12;;;;;;;22.40;19.20;;;;;;;5.78;56.13;101786.48;109143;1265;22082;-79
2022/03/15 04:11:53;;;;;;;19.30;17.30;;;;;;;5.84;56.39;101775.77;109220;1265;23014;-79
2022/03/15 04:14:34;;;;;;;21.20;18.90;;;;;;;5.88;56.58;101776.85;109513;1265;22514;-78
2022/03/15 04:17:57;;;;;;;19.60;17.50;;;;;;;5.91;56.89;101777.92;109616;1265;23687;-79
2022/03/15 04:20:41;;;;;;;21.70;18.10;;;;;;;5.95;57.11;101779.96;109584;1262;22355;-78
2022/03/15 04:23:30;;;;;;;20.30;17.10;;;;;;;5.99;57.28;101780.19;109725;1259;22446;-79
2022/03/15 04:26:24;;;;;;;29.10;19.30;;;;;;;6.03;57.53;101776.94;109636;1254;23730;-78
2022/03/15 04:29:01;;;;;;;20.40;17.70;;;;;;;6.08;57.63;101775.39;110643;1253;22000;-79
2022/03/15 04:31:56;;;;;;;24.80;18.70;;;;;;;6.12;57.71;101778.95;110520;1253;21957;-79
2022/03/15 04:34:34;;;;;;;23.00;19.00;;;;;;;6.15;57.94;101775.61;110292;1248;21941;-79
2022/03/15 04:37:23;;;;;;;21.20;18.90;;;;;;;6.20;58.13;101778.47;110634;1253;23015;-79
2022/03/15 04:40:23;;;;;;;22.50;19.50;;;;;;;6.22;58.32;101776.03;110211;1257;21963;-80
2022/03/15 04:43:12;;;;;;;25.00;19.60;;;;;;;6.23;58.46;101775.42;110531;1256;22316;-78
2022/03/15 04:49:47;;;;;;;23.80;18.80;;;;;;;6.17;58.91;101771.83;109484;1265;22002;-79
2022/03/15 04:52:20;;;;;;;23.30;19.00;;;;;;;6.17;58.97;101774.41;109348;1264;23840;-79
2022/03/15 04:55:07;;;;;;;22.10;19.50;;;;;;;6.19;59.08;101772.02;109502;1261;22079;-78
2022/03/15 04:57:57;;;;;;;22.60;19.70;;;;;;;6.21;59.17;101778.36;109704;1260;22261;-78
2022/03/15 05:00:39;;;;;;;28.60;23.80;;;;;;;6.22;59.29;101785.95;109754;1259;23877;-78
2022/03/15 05:03:20;;;;;;;33.60;29.90;;;;;;;6.23;59.43;101786.09;109558;1261;22021;-79
2022/03/15 05:06:06;;;;;;;63.20;51.40;;;;;;;6.22;59.51;101785.29;109130;1267;22017;-79
2022/03/15 05:09:15;;;;;;;35.90;30.90;;;;;;;6.15;59.70;101790.48;109361;1264;22375;-78
2022/03/15 05:11:55;;;;;;;31.60;28.50;;;;;;;6.11;59.96;101793.19;109213;1262;23592;-79
2022/03/15 05:14:47;;;;;;;37.40;33.60;;;;;;;6.08;60.24;101794.11;109921;1260;22197;-78
2022/03/15 05:17:26;;;;;;;32.20;28.70;;;;;;;6.07;60.47;101798.36;109842;1260;21995;-78
2022/03/15 05:19:57;;;;;;;29.90;26.80;;;;;;;6.08;60.69;101798.95;110128;1253;23071;-78
2022/03/15 05:22:40;;;;;;;35.50;31.60;;;;;;;6.11;60.90;101799.80;110526;1254;22020;-77
2022/03/15 05:25:23;;;;;;;130.90;104.00;;;;;;;6.16;61.16;101799.01;110868;1247;23008;-78
2022/03/15 05:28:08;;;;;;;102.00;83.70;;;;;;;6.17;61.28;101799.27;110849;1251;21961;-79
2022/03/15 05:30:59;;;;;;;60.20;53.80;;;;;;;6.23;61.69;101800.09;110776;1249;21958;-79
2022/03/15 05:33:47;;;;;;;39.20;34.50;;;;;;;6.28;61.78;101799.92;110105;1254;21969;-78
2022/03/15 05:37:08;;;;;;;39.40;35.20;;;;;;;6.34;61.93;101801.44;110356;1256;22316;-80
2022/03/15 05:39:59;;;;;;;33.40;30.00;;;;;;;6.36;62.09;101798.83;110212;1259;23591;-79
2022/03/15 05:42:51;;;;;;;42.00;38.20;;;;;;;6.36;62.09;101792.91;110091;1257;22025;-79
2022/03/15 05:45:43;;;;;;;31.50;28.30;;;;;;;6.34;62.21;101796.17;109587;1262;22993;-79
2022/03/15 05:48:31;;;;;;;31.30;28.20;;;;;;;6.33;62.37;101798.69;109829;1263;23054;-79
2022/03/15 05:51:13;;;;;;;32.80;29.40;;;;;;;6.34;62.54;101799.17;109598;1262;22533;-80
2022/03/15 05:54:00;;;;;;;28.80;25.60;;;;;;;6.39;62.73;101795.52;109475;1266;22968;-80
2022/03/15 05:56:35;;;;;;;29.80;26.70;;;;;;;6.45;62.93;101799.10;109597;1264;22842;-80
2022/03/15 05:59:15;;;;;;;28.10;23.30;;;;;;;6.52;63.08;101800.35;110082;1259;22093;-79
2022/03/15 06:02:11;;;;;;;30.00;26.20;;;;;;;6.62;63.32;101796.72;110243;1259;21973;-81
2022/03/15 06:04:54;;;;;;;;;;;;;;;6.71;63.30;101795.88;110822;1252;22004;-80
2022/03/15 06:08:08;;;;;;;30.90;27.40;;;;;;;6.73;63.36;101792.98;110859;1253;22058;-80
2022/03/15 06:11:09;;;;;;;28.30;25.30;;;;;;;6.77;63.25;101795.50;110617;1250;21952;-81
2022/03/15 06:13:47;;;;;;;30.50;27.30;;;;;;;6.87;63.46;101801.64;110591;1257;23591;-80
2022/03/15 06:16:25;;;;;;;32.20;28.70;;;;;;;6.92;63.34;101805.10;109576;1262;23542;-80
2022/03/15 06:19:09;;;;;;;39.80;35.80;;;;;;;6.96;63.25;101807.81;109562;1262;23729;-80
2022/03/15 06:22:06;;;;;;;37.40;33.60;;;;;;;6.97;63.17;101810.03;109311;1265;22065;-78
2022/03/15 06:24:39;;;;;;;35.90;28.70;;;;;;;6.98;63.14;101809.05;109631;1264;21987;-79
2022/03/15 06:27:09;;;;;;;35.00;31.20;;;;;;;7.02;63.13;101809.10;109385;1264;22793;-79
2022/03/15 06:29:39;;;;;;;40.50;36.50;;;;;;;7.08;63.15;101812.72;109351;1263;23689;-81
2022/03/15 06:32:21;;;;;;;32.80;28.50;;;;;;;7.14;63.13;101817.02;109404;1268;22043;-79
2022/03/15 06:35:05;;;;;;;36.90;33.00;;;;;;;7.21;63.07;101820.39;109068;1265;21978;-79
2022/03/15 06:37:39;;;;;;;30.80;27.60;;;;;;;7.25;63.04;101817.63;108780;1271;21994;-79
2022/03/15 06:40:27;;;;;;;34.90;31.20;;;;;;;7.29;62.99;101819.08;108851;1270;23741;-79
2022/03/15 06:43:01;;;;;;;32.80;29.40;;;;;;;7.33;63.04;101814.08;108904;1271;23596;-80
2022/03/15 06:45:38;;;;;;;33.50;29.20;;;;;;;7.38;63.00;101818.81;108992;1273;21988;-80
2022/03/15 06:48:10;;;;;;;32.10;26.50;;;;;;;7.38;62.80;101818.14;108997;1270;23755;-79
2022/03/15 06:50:40;;;;;;;34.10;27.30;;;;;;;7.39;62.85;101815.55;108990;1270;21993;-81
2022/03/15 06:53:13;;;;;;;31.10;26.40;;;;;;;7.41;62.77;101815.45;109269;1265;24481;-80
2022/03/15 06:55:44;;;;;;;31.30;27.90;;;;;;;7.45;62.76;101817.42;109728;1259;22944;-82
2022/03/15 06:58:17;;;;;;;33.00;24.50;;;;;;;7.53;62.73;101819.83;110418;1257;21960;-81
2022/03/15 07:00:51;;;;;;;28.80;24.50;;;;;;;7.57;62.48;101820.44;110738;1254;22761;-83
2022/03/15 07:03:25;;;;;;;35.40;27.40;;;;;;;7.58;62.30;101821.58;110641;1253;21948;-81
2022/03/15 07:05:58;;;;;;;31.10;27.70;;;;;;;7.58;62.42;101823.67;110394;1258;22339;-75
2022/03/15 07:08:28;;;;;;;33.10;26.00;;;;;;;7.63;62.52;101824.56;109838;1260;23576;-80
2022/03/15 07:11:00;;;;;;;33.40;28.60;;;;;;;7.67;62.48;101826.85;110300;1257;21970;-79
2022/03/15 07:13:35;;;;;;;41.70;28.50;;;;;;;7.74;62.61;101827.59;110705;1254;22009;-78
2022/03/15 07:16:07;;;;;;;34.60;25.20;;;;;;;7.83;62.58;101825.71;109634;1261;23894;-79
2022/03/15 07:18:41;;;;;;;46.90;36.50;;;;;;;7.88;62.37;101822.46;109397;1261;23634;-79
2022/03/15 07:21:11;;;;;;;54.10;39.70;;;;;;;7.90;62.40;101822.66;109443;1261;22462;-79
2022/03/15 07:23:43;;;;;;;47.00;36.40;;;;;;;7.97;62.77;101824.98;109837;1254;22077;-78
2022/03/15 07:26:14;;;;;;;65.50;32.60;;;;;;;8.07;62.91;101823.92;110421;1253;22102;-78
2022/03/15 07:28:56;;;;;;;44.40;26.80;;;;;;;8.16;63.07;101820.09;110348;1256;21965;-79
2022/03/15 07:31:32;;;;;;;28.30;24.50;;;;;;;8.29;63.40;101820.81;110176;1258;23012;-79
2022/03/15 07:34:03;;;;;;;27.30;22.80;;;;;;;8.46;63.63;101816.77;110304;1250;22115;-78
2022/03/15 07:36:36;;;;;;;40.40;28.60;;;;;;;8.64;63.73;101811.16;110503;1256;21969;-78
2022/03/15 07:39:06;;;;;;;40.40;34.00;;;;;;;8.78;63.30;101809.01;110358;1253;23590;-78
2022/03/15 07:41:46;;;;;;;31.60;25.70;;;;;;;8.89;62.94;101808.27;110352;1256;21984;-78
2022/03/15 07:44:29;;;;;;;32.20;27.90;;;;;;;9.01;62.88;101806.60;109644;1259;22258;-78
2022/03/15 07:47:04;;;;;;;36.10;31.90;;;;;;;9.17;62.57;101804.28;109427;1260;23060;-77
2022/03/15 07:49:36;;;;;;;36.60;29.20;;;;;;;9.30;62.07;101802.23;109705;1263;23656;-78
2022/03/15 07:52:08;;;;;;;38.80;33.30;;;;;;;9.47;61.83;101800.82;109335;1263;22207;-77
2022/03/15 07:54:43;;;;;;;33.80;28.50;;;;;;;9.69;61.55;101801.53;109849;1258;22003;-78
2022/03/15 07:57:25;;;;;;;37.40;29.70;;;;;;;9.87;60.71;101799.06;109668;1259;24023;-78
2022/03/15 07:59:57;;;;;;;36.80;29.60;;;;;;;10.00;59.99;101796.27;110086;1260;23007;-77
2022/03/15 08:02:44;;;;;;;39.10;27.60;;;;;;;10.18;60.01;101795.81;109690;1260;23036;-78
2022/03/15 08:05:20;;;;;;;34.60;26.10;;;;;;;10.39;59.71;101794.43;110013;1260;21961;-80
2022/03/15 08:08:04;;;;;;;30.40;23.00;;;;;;;10.54;58.77;101791.35;109895;1259;24331;-78
2022/03/15 08:10:54;;;;;;;;;;;;;;;;;;;;;
2022/03/15 08:13:45;;;;;;;28.90;22.10;;;;;;;10.59;57.08;101792.81;110109;1260;23591;-81
2022/03/15 08:19:47;;;;;;;44.60;26.20;;;;;;;10.50;55.93;101792.72;110212;1253;375749;-75
2022/03/15 08:22:30;;;;;;;30.70;24.00;;;;;;;10.41;55.67;101793.04;110492;1254;23584;-75
2022/03/15 08:25:10;;;;;;;34.40;24.80;;;;;;;10.31;55.75;101797.40;110338;1255;23668;-75
2022/03/15 08:28:05;;;;;;;29.10;23.50;;;;;;;10.28;56.17;101797.44;110439;1253;21953;-75
2022/03/15 08:30:46;;;;;;;31.40;26.60;;;;;;;10.20;55.91;101800.70;110604;1253;23600;-75
2022/03/15 08:33:24;;;;;;;32.30;27.60;;;;;;;10.12;55.93;101800.14;110311;1259;21961;-75
2022/03/15 08:36:05;;;;;;;34.80;27.40;;;;;;;10.12;56.33;101803.67;110077;1257;23783;-76
2022/03/15 08:38:48;;;;;;;29.80;23.70;;;;;;;10.09;56.21;101801.86;109811;1261;21976;-76
2022/03/15 08:41:27;;;;;;;32.50;26.90;;;;;;;10.08;56.52;101799.30;109860;1257;21960;-75
2022/03/15 08:44:00;;;;;;;28.10;24.50;;;;;;;10.12;56.71;101797.85;110138;1258;24277;-75
2022/03/15 08:46:33;;;;;;;29.10;25.20;;;;;;;10.15;56.63;101798.55;110007;1260;21979;-75
2022/03/15 08:49:11;;;;;;;31.70;28.20;;;;;;;10.17;56.70;101795.54;109767;1260;22688;-74
2022/03/15 08:51:49;;;;;;;34.70;30.00;;;;;;;10.24;57.25;101801.60;110154;1254;24023;-74
2022/03/15 08:54:21;;;;;;;33.70;29.80;;;;;;;10.56;58.76;101799.61;110334;1256;21984;-75
2022/03/15 08:56:58;;;;;;;32.50;29.00;;;;;;;11.19;60.09;101797.30;110040;1255;22006;-75
2022/03/15 08:59:36;;;;;;;46.30;38.90;;;;;;;11.96;59.93;101794.70;110175;1257;22002;-76
2022/03/15 09:02:25;;;;;;;33.20;29.70;;;;;;;12.72;58.11;101796.14;110260;1257;21961;-75
2022/03/15 09:05:05;;;;;;;31.90;28.20;;;;;;;13.42;56.39;101794.44;110310;1257;21958;-75
2022/03/15 09:07:39;;;;;;;29.70;26.50;;;;;;;13.98;54.40;101795.55;110077;1258;21979;-76
2022/03/15 09:10:24;;;;;;;32.80;27.90;;;;;;;14.48;52.81;101799.05;110034;1260;23668;-76
2022/03/15 09:13:09;;;;;;;32.70;29.40;;;;;;;14.74;50.09;101797.01;109847;1262;21968;-75
2022/03/15 09:15:53;;;;;;;35.50;31.30;;;;;;;14.52;48.55;101797.55;110161;1257;21975;-75
2022/03/15 09:18:30;;;;;;;30.10;27.10;;;;;;;14.09;48.12;101799.09;110325;1257;21972;-75
2022/03/15 09:21:02;;;;;;;31.20;26.10;;;;;;;13.73;48.85;101796.73;110315;1256;23134;-76
2022/03/15 09:23:35;;;;;;;28.40;25.50;;;;;;;13.49;48.99;101794.81;110060;1257;23744;-74
2022/03/15 09:26:14;;;;;;;30.00;26.30;;;;;;;13.24;49.51;101791.40;110248;1257;22204;-75
2022/03/15 09:28:47;;;;;;;26.10;23.50;;;;;;;13.11;49.88;101791.73;110529;1250;22229;-75
2022/03/15 09:31:25;;;;;;;23.20;21.00;;;;;;;13.02;50.21;101786.33;110671;1252;22021;-75
2022/03/15 09:33:58;;;;;;;31.30;28.10;;;;;;;12.91;50.38;101781.39;110698;1250;23046;-75
2022/03/15 09:36:34;;;;;;;26.00;23.30;;;;;;;12.85;50.75;101781.45;110726;1250;23679;-75
2022/03/15 09:39:25;;;;;;;23.80;21.10;;;;;;;12.85;51.21;101780.33;110507;1250;23121;-76
2022/03/15 09:42:12;;;;;;;24.30;21.90;;;;;;;12.96;51.56;101774.55;110479;1251;21975;-76
2022/03/15 09:44:47;;;;;;;24.80;20.20;;;;;;;13.17;52.19;101769.48;110338;1257;21963;-76
2022/03/15 09:47:23;;;;;;;24.20;20.60;;;;;;;13.56;52.59;101773.59;110441;1254;22314;-75
2022/03/15 09:50:09;;;;;;;32.60;29.10;;;;;;;14.08;52.04;101772.08;110453;1257;23555;-75
2022/03/15 09:52:54;;;;;;;25.70;23.10;;;;;;;14.43;50.20;101774.02;110427;1256;22972;-75
2022/03/15 09:55:44;;;;;;;23.50;20.90;;;;;;;14.69;49.50;101774.39;110343;1254;23767;-75
2022/03/15 09:58:24;;;;;;;22.60;20.30;;;;;;;14.92;48.37;101769.80;110408;1255;23031;-75
2022/03/15 10:00:58;;;;;;;22.60;20.20;;;;;;;15.07;48.24;101768.91;110365;1254;23042;-75
2022/03/15 10:03:32;;;;;;;22.30;19.60;;;;;;;15.24;48.01;101767.15;110667;1250;21974;-74
2022/03/15 10:06:10;;;;;;;20.80;18.80;;;;;;;15.45;47.50;101771.60;110599;1250;22097;-75
2022/03/15 10:08:47;;;;;;;19.80;17.70;;;;;;;15.50;46.34;101768.71;110705;1250;23726;-75
2022/03/15 10:11:19;;;;;;;20.40;18.30;;;;;;;15.36;45.38;101762.66;110527;1250;21985;-76
2022/03/15 10:14:00;;;;;;;21.80;19.60;;;;;;;15.29;46.31;101760.17;110618;1250;21953;-75
2022/03/15 10:16:32;;;;;;;22.50;20.20;;;;;;;15.43;46.76;101754.28;110603;1251;21966;-75
2022/03/15 10:19:14;;;;;;;26.80;21.30;;;;;;;15.66;46.97;101750.69;110683;1250;23622;-75
2022/03/15 10:21:54;;;;;;;24.80;19.80;;;;;;;15.91;46.23;101749.22;110499;1250;21966;-75
2022/03/15 10:24:29;;;;;;;18.40;16.60;;;;;;;16.13;45.56;101749.30;110252;1257;23589;-75
2022/03/15 10:27:10;;;;;;;20.80;16.50;;;;;;;16.16;44.69;101752.40;109596;1263;21983;-74
2022/03/15 10:29:47;;;;;;;17.60;15.20;;;;;;;16.19;44.84;101750.19;109128;1265;22755;-75
2022/03/15 10:32:20;;;;;;;18.50;16.70;;;;;;;16.24;44.13;101751.61;109115;1267;23062;-75
2022/03/15 10:35:11;;;;;;;27.60;19.90;;;;;;;16.24;44.36;101748.20;108932;1267;22804;-74
2022/03/15 10:37:55;;;;;;;16.80;15.10;;;;;;;16.36;43.99;101746.58;108668;1273;22004;-75
2022/03/15 10:40:49;;;;;;;20.20;15.80;;;;;;;16.44;44.34;101745.31;108738;1270;21992;-75
2022/03/15 10:43:28;;;;;;;15.10;13.40;;;;;;;16.77;44.72;101740.52;108814;1270;23698;-76
2022/03/15 10:46:12;;;;;;;13.80;12.40;;;;;;;17.09;43.95;101736.11;108759;1268;21972;-75
2022/03/15 10:48:51;;;;;;;14.60;12.90;;;;;;;17.41;43.16;101730.14;109405;1257;22942;-75
2022/03/15 10:51:26;;;;;;;14.30;12.80;;;;;;;17.73;42.67;101730.16;110169;1257;21968;-76
2022/03/15 10:54:09;;;;;;;15.30;13.00;;;;;;;18.13;42.10;101723.98;110066;1257;22031;-77
2022/03/15 10:57:02;;;;;;;14.10;12.60;;;;;;;18.39;40.77;101713.73;110534;1251;21970;-75
2022/03/15 10:59:41;;;;;;;17.20;12.30;;;;;;;18.64;40.48;101717.83;110718;1250;22126;-74
2022/03/15 11:02:33;;;;;;;17.90;14.00;;;;;;;18.88;39.87;101711.80;110472;1251;23089;-76
2022/03/15 11:05:11;;;;;;;14.90;13.50;;;;;;;19.15;39.30;101712.56;110706;1250;23597;-75
2022/03/15 11:07:51;;;;;;;16.60;13.20;;;;;;;19.16;38.09;101711.51;110763;1250;23024;-76
2022/03/15 11:10:36;;;;;;;;;;;;;;;19.06;38.02;101705.39;110770;1250;23628;-74
2022/03/15 11:13:30;;;;;;;14.20;12.70;;;;;;;18.84;37.62;101703.92;110624;1250;22070;-75
2022/03/15 11:16:13;;;;;;;13.50;11.40;;;;;;;18.51;37.30;101703.05;110816;1250;22169;-76
2022/03/15 11:18:50;;;;;;;14.40;13.00;;;;;;;18.10;37.55;101698.27;110710;1250;22078;-75
2022/03/15 11:21:35;;;;;;;17.80;16.00;;;;;;;17.67;37.99;101694.35;110487;1254;22714;-76
2022/03/15 11:24:29;;;;;;;15.00;13.40;;;;;;;17.17;38.46;101689.86;110277;1254;23662;-75
2022/03/15 11:27:16;;;;;;;14.60;13.20;;;;;;;16.70;39.27;101684.91;110122;1260;23745;-74
2022/03/15 11:30:06;;;;;;;16.80;15.10;;;;;;;16.34;39.87;101679.80;110192;1257;23049;-74
2022/03/15 11:32:47;;;;;;;15.00;13.40;;;;;;;16.03;40.54;101678.30;110117;1257;23089;-76
2022/03/15 11:35:23;;;;;;;15.60;14.00;;;;;;;15.78;41.04;101675.69;110033;1257;23690;-76
2022/03/15 11:38:04;;;;;;;17.50;14.50;;;;;;;15.56;41.52;101664.59;109780;1257;23214;-73
2022/03/15 11:40:44;;;;;;;15.60;14.00;;;;;;;15.37;42.01;101665.25;109837;1261;23839;-75
2022/03/15 11:44:31;;;;;;;18.20;14.20;;;;;;;15.16;42.02;101665.55;109636;1261;22006;-75
2022/03/15 11:47:27;;;;;;;15.40;13.20;;;;;;;14.91;42.42;101665.50;109227;1265;22762;-75
2022/03/15 11:50:12;;;;;;;14.50;12.80;;;;;;;14.69;42.74;101658.94;109264;1264;21977;-76
2022/03/15 11:53:12;;;;;;;15.60;13.20;;;;;;;14.55;43.23;101654.90;109447;1261;23603;-76
2022/03/15 11:56:33;;;;;;;16.40;14.70;;;;;;;14.48;43.66;101653.33;109623;1263;22741;-75
2022/03/15 11:59:15;;;;;;;16.00;13.40;;;;;;;14.40;43.68;101647.98;110141;1257;21971;-74
2022/03/15 12:02:01;;;;;;;17.90;14.40;;;;;;;14.34;43.83;101644.67;109589;1262;21985;-74
2022/03/15 12:04:38;;;;;;;16.10;14.50;;;;;;;14.29;44.12;101639.90;109228;1263;21965;-76
2022/03/15 12:07:46;;;;;;;14.20;12.80;;;;;;;14.21;44.31;101639.68;109203;1263;21990;-75
2022/03/15 12:10:28;;;;;;;17.50;13.60;;;;;;;14.17;44.63;101634.96;109391;1263;23625;-75
2022/03/15 12:14:16;;;;;;;17.60;15.70;;;;;;;14.13;44.67;101627.05;109556;1264;21982;-75
2022/03/15 12:16:54;;;;;;;19.20;17.10;;;;;;;14.00;44.61;101630.31;108905;1267;23055;-75
2022/03/15 12:19:35;;;;;;;26.80;22.80;;;;;;;13.91;44.73;101626.29;109105;1263;23587;-74
2022/03/15 12:22:11;;;;;;;19.40;17.10;;;;;;;13.83;45.03;101625.69;109730;1263;21970;-75
2022/03/15 12:25:10;;;;;;;18.10;15.90;;;;;;;13.85;45.48;101623.73;109805;1261;22409;-75